createdAt,value
2022-12-17T00:02:17.363Z,8.88
2022-12-17T00:05:02.720Z,9.48
2022-12-17T00:07:48.009Z,9.85
2022-12-17T00:10:33.383Z,8.57
2022-12-17T00:13:18.725Z,9.85
2022-12-17T00:16:12.147Z,10.73
2022-12-17T00:18:57.555Z,10.35
2022-12-17T00:21:42.992Z,9.93
2022-12-17T00:24:28.412Z,9.40
2022-12-17T00:27:13.834Z,10.57
2022-12-17T00:29:59.073Z,9.63
2022-12-17T05:33:22.371Z,8.60
2022-12-17T05:36:08.568Z,10.75
2022-12-17T05:38:54.186Z,10.60
2022-12-17T05:41:39.548Z,11.02
2022-12-17T05:44:25.106Z,9.90
2022-12-17T05:47:10.384Z,9.15
2022-12-17T05:49:56.549Z,8.45
2022-12-17T05:52:42.034Z,9.10
2022-12-17T05:55:27.918Z,11.18
2022-12-17T05:58:21.385Z,9.10
2022-12-17T06:01:06.876Z,11.80
2022-12-17T06:03:52.414Z,8.90
2022-12-17T06:06:37.666Z,9.40
2022-12-17T06:09:23.159Z,12.15
2022-12-17T06:12:08.375Z,8.23
2022-12-17T06:14:53.759Z,9.45
2022-12-17T06:17:38.995Z,11.20
2022-12-17T06:20:24.567Z,11.75
2022-12-17T06:23:24.965Z,12.25
2022-12-17T06:26:15.118Z,14.52
2022-12-17T06:29:01.163Z,9.30
2022-12-17T06:31:47.352Z,10.93
2022-12-17T06:34:32.642Z,10.18
2022-12-17T06:37:18.188Z,8.60
2022-12-17T06:40:03.551Z,9.63
2022-12-17T06:42:48.916Z,11.38
2022-12-17T06:45:34.262Z,8.40
2022-12-17T06:48:27.599Z,9.80
2022-12-17T06:51:14.183Z,10.50
2022-12-17T06:54:00.652Z,13.25
2022-12-17T06:56:46.178Z,8.93
2022-12-17T06:59:31.679Z,9.52
2022-12-17T07:02:17.277Z,11.40
2022-12-17T07:05:02.491Z,13.15
2022-12-17T07:07:47.997Z,9.40
2022-12-17T07:10:33.448Z,10.70
2022-12-17T07:13:25.959Z,10.23
2022-12-17T07:16:11.878Z,9.77
2022-12-17T07:18:57.745Z,12.18
2022-12-17T07:21:43.295Z,12.27
2022-12-17T07:24:28.663Z,12.40
2022-12-17T07:27:13.986Z,13.63
2022-12-17T07:29:59.394Z,18.13
2022-12-17T07:32:55.418Z,14.73
2022-12-17T07:35:40.845Z,33.30
2022-12-17T07:38:27.282Z,14.10
2022-12-17T07:41:12.619Z,19.40
2022-12-17T07:43:58.031Z,19.40
2022-12-17T07:46:43.430Z,20.60
2022-12-17T07:49:28.874Z,17.33
2022-12-17T07:52:14.355Z,19.48
2022-12-17T07:54:59.767Z,19.65
2022-12-17T07:57:45.284Z,16.95
2022-12-17T08:00:31.463Z,16.38
2022-12-17T08:03:20.166Z,25.10
2022-12-17T08:06:05.375Z,16.90
2022-12-17T08:08:50.725Z,18.38
2022-12-17T08:11:36.215Z,22.35
2022-12-17T08:14:21.603Z,20.73
2022-12-17T08:17:06.943Z,23.90
2022-12-17T08:19:52.182Z,26.17
2022-12-17T08:22:37.448Z,22.08
2022-12-17T08:25:23.126Z,21.33
2022-12-17T08:28:41.625Z,17.15
2022-12-17T08:31:22.659Z,28.52
2022-12-17T08:34:08.403Z,25.85
2022-12-17T08:36:54.039Z,24.88
2022-12-17T08:39:39.509Z,22.92
2022-12-17T08:42:24.919Z,16.45
2022-12-17T08:45:10.412Z,12.65
2022-12-17T08:47:59.218Z,15.90
2022-12-17T08:50:48.764Z,14.25
2022-12-17T08:53:35.242Z,13.25
2022-12-17T08:56:20.771Z,10.27
2022-12-17T08:59:06.122Z,11.30
2022-12-17T09:01:51.699Z,8.18
2022-12-17T09:04:36.976Z,8.07
2022-12-17T09:07:22.368Z,8.70
2022-12-17T09:10:07.862Z,9.07
2022-12-17T09:12:53.146Z,8.15
2022-12-17T09:15:38.659Z,7.65
2022-12-17T09:18:23.927Z,8.48
2022-12-17T09:21:12.766Z,8.43
2022-12-17T09:23:58.118Z,7.43
2022-12-17T09:26:43.561Z,7.28
2022-12-17T09:29:28.859Z,5.70
2022-12-17T09:32:14.399Z,10.93
2022-12-17T09:34:59.737Z,12.18
2022-12-17T09:37:45.140Z,7.65
2022-12-17T09:40:37.188Z,7.63
2022-12-17T09:43:51.842Z,8.35
2022-12-17T09:46:46.184Z,9.38
2022-12-17T09:49:40.791Z,7.22
2022-12-17T09:52:48.222Z,8.02
2022-12-17T09:55:44.216Z,8.13
2022-12-17T09:58:48.931Z,8.23
2022-12-17T10:01:43.137Z,7.18
2022-12-17T10:04:35.509Z,7.72
2022-12-17T10:07:21.585Z,6.88
2022-12-17T10:10:10.404Z,7.68
2022-12-17T10:12:55.784Z,7.75
2022-12-17T10:15:41.371Z,8.70
2022-12-17T10:18:31.310Z,7.90
2022-12-17T10:21:25.923Z,9.30
2022-12-17T10:24:23.947Z,7.63
2022-12-17T10:27:09.361Z,8.30
2022-12-17T10:29:54.697Z,7.68
2022-12-17T10:32:43.453Z,8.27
2022-12-17T10:35:39.144Z,8.15
2022-12-17T10:38:42.593Z,10.52
2022-12-17T10:41:59.216Z,9.55
2022-12-17T10:44:46.074Z,9.98
2022-12-17T10:47:33.669Z,9.30
2022-12-17T10:50:21.785Z,8.95
2022-12-17T10:53:07.635Z,8.02
2022-12-17T10:55:54.749Z,8.27
2022-12-17T10:58:41.732Z,9.68
2022-12-17T11:01:31.277Z,8.27
2022-12-17T11:04:17.623Z,8.18
2022-12-17T11:07:09.639Z,9.15
2022-12-17T11:10:08.564Z,8.90
2022-12-17T11:13:03.276Z,9.57
2022-12-17T11:16:16.161Z,9.07
2022-12-17T11:19:17.150Z,34.38
2022-12-17T11:22:12.834Z,16.88
2022-12-17T11:25:54.839Z,10.55
2022-12-17T11:28:45.231Z,11.05
2022-12-17T11:31:36.396Z,10.98
2022-12-17T11:34:43.309Z,9.57
2022-12-17T11:37:38.955Z,12.25
2022-12-17T11:40:46.171Z,14.35
2022-12-17T11:43:39.698Z,11.35
2022-12-17T11:46:39.312Z,8.95
2022-12-17T11:49:55.888Z,11.57
2022-12-17T11:52:54.590Z,9.50
2022-12-17T11:56:07.543Z,10.85
2022-12-17T11:58:58.889Z,10.95
2022-12-17T12:01:59.249Z,10.35
2022-12-17T12:05:23.083Z,8.32
2022-12-17T12:08:49.856Z,8.80
2022-12-17T12:12:16.595Z,10.07
2022-12-17T12:15:09.258Z,9.20
2022-12-17T12:18:04.299Z,8.93
2022-12-17T12:21:04.483Z,9.77
2022-12-17T12:23:56.185Z,17.10
2022-12-17T12:26:47.189Z,11.60
2022-12-17T12:29:32.745Z,11.52
2022-12-17T12:32:37.105Z,9.35
2022-12-17T12:35:23.631Z,10.07
2022-12-17T12:38:09.185Z,10.52
2022-12-17T12:41:05.912Z,11.10
2022-12-17T12:43:57.670Z,11.15
2022-12-17T12:46:57.734Z,12.45
2022-12-17T12:50:00.484Z,11.75
2022-12-17T12:52:47.072Z,11.65
2022-12-17T12:55:32.388Z,10.30
2022-12-17T12:58:18.743Z,11.68
2022-12-17T13:01:06.959Z,12.90
2022-12-17T13:04:08.602Z,11.88
2022-12-17T13:06:41.405Z,10.65
2022-12-17T13:09:17.911Z,10.57
2022-12-17T13:11:47.280Z,11.00
2022-12-17T13:14:36.966Z,10.98
2022-12-17T13:17:18.656Z,10.95
2022-12-17T13:19:47.234Z,10.70
2022-12-17T13:22:23.734Z,11.60
2022-12-17T13:24:53.675Z,11.38
2022-12-17T13:27:35.513Z,12.65
2022-12-17T13:30:17.296Z,11.68
2022-12-17T13:33:02.634Z,15.73
2022-12-17T13:35:35.680Z,12.95
2022-12-17T13:38:16.940Z,14.07
2022-12-17T13:41:11.090Z,14.45
2022-12-17T13:43:45.686Z,14.40
2022-12-17T13:46:25.571Z,12.90
2022-12-17T13:49:01.551Z,45.42
2022-12-17T13:51:30.979Z,23.63
2022-12-17T13:54:03.399Z,14.80
2022-12-17T13:56:38.076Z,14.73
2022-12-17T13:59:09.136Z,12.98
2022-12-17T14:01:45.354Z,12.38
2022-12-17T14:04:24.331Z,14.45
2022-12-17T14:06:52.323Z,12.07
2022-12-17T14:09:21.390Z,13.57
2022-12-17T14:12:08.030Z,14.63
2022-12-17T14:14:40.319Z,12.38
2022-12-17T14:17:15.145Z,13.27
2022-12-17T14:19:42.025Z,18.73
2022-12-17T14:22:16.351Z,17.02
2022-12-17T14:24:42.983Z,13.55
2022-12-17T14:27:31.952Z,16.52
2022-12-17T14:29:58.638Z,13.95
2022-12-17T14:32:34.752Z,13.52
2022-12-17T14:35:02.371Z,17.92
2022-12-17T14:37:29.829Z,17.23
2022-12-17T14:40:02.560Z,13.25
2022-12-17T14:42:29.945Z,12.40
2022-12-17T14:45:02.890Z,13.18
2022-12-17T14:47:30.664Z,26.98
2022-12-17T14:50:05.237Z,16.88
2022-12-17T14:52:37.223Z,13.68
2022-12-17T14:55:55.949Z,13.52
2022-12-17T14:58:24.768Z,10.85
2022-12-17T15:01:04.693Z,15.00
2022-12-17T15:03:35.046Z,16.08
2022-12-17T15:06:04.970Z,12.57
2022-12-17T15:08:39.666Z,13.50
2022-12-17T15:11:07.335Z,14.70
2022-12-17T15:13:34.060Z,14.73
2022-12-17T15:16:00.715Z,16.48
2022-12-17T15:18:27.401Z,14.68
2022-12-17T15:20:54.101Z,15.10
2022-12-17T15:23:23.415Z,12.32
2022-12-17T15:25:52.559Z,15.90
2022-12-17T15:28:20.043Z,13.05
2022-12-17T15:30:48.354Z,17.83
2022-12-17T15:33:15.296Z,15.10
2022-12-17T15:35:42.807Z,13.50
2022-12-17T15:38:11.565Z,10.73
2022-12-17T15:40:38.477Z,15.35
2022-12-17T15:43:10.983Z,13.98
2022-12-17T15:45:46.439Z,14.15
2022-12-17T15:48:18.738Z,12.55
2022-12-17T15:50:45.970Z,15.05
2022-12-17T15:53:13.165Z,14.65
2022-12-17T15:55:40.237Z,14.48
2022-12-17T15:58:09.062Z,14.18
2022-12-17T16:00:35.788Z,15.05
2022-12-17T16:03:02.570Z,15.40
2022-12-17T16:05:29.356Z,16.33
2022-12-17T16:07:59.236Z,13.95
2022-12-17T16:10:25.922Z,12.27
2022-12-17T16:12:52.535Z,11.50
2022-12-17T16:15:19.139Z,16.67
2022-12-17T16:17:45.720Z,13.80
2022-12-17T16:20:12.478Z,14.90
2022-12-17T16:22:39.229Z,13.00
2022-12-17T16:25:06.173Z,14.88
2022-12-17T16:27:32.867Z,15.95
2022-12-17T16:29:59.564Z,15.48
2022-12-17T16:32:29.225Z,14.27
2022-12-17T16:34:58.152Z,14.43
2022-12-17T16:37:25.043Z,18.77
2022-12-17T16:39:56.606Z,13.80
2022-12-17T16:42:26.511Z,14.15
2022-12-17T16:44:53.132Z,14.35
2022-12-17T16:47:19.735Z,14.13
2022-12-17T16:49:46.349Z,14.73
2022-12-17T16:52:13.004Z,17.38
2022-12-17T16:54:39.722Z,17.33
2022-12-17T16:57:06.303Z,24.58
2022-12-17T16:59:32.947Z,16.27
2022-12-17T17:02:00.206Z,20.45
2022-12-17T17:04:27.006Z,19.10
2022-12-17T17:06:55.851Z,17.25
2022-12-17T17:09:23.720Z,22.15
2022-12-17T17:11:52.068Z,19.67
2022-12-17T17:14:19.272Z,17.35
2022-12-17T17:16:46.121Z,17.35
2022-12-17T17:19:12.792Z,18.58
2022-12-17T17:21:41.747Z,18.55
2022-12-17T17:24:18.499Z,19.80
2022-12-17T17:26:47.985Z,21.92
2022-12-17T17:29:14.682Z,22.05
2022-12-17T17:34:28.174Z,25.77
2022-12-17T17:36:54.848Z,21.48
2022-12-17T17:39:21.422Z,24.75
2022-12-17T17:41:48.058Z,27.70
2022-12-17T17:44:15.013Z,23.15
2022-12-17T17:46:42.059Z,22.13
2022-12-17T17:49:09.053Z,18.90
2022-12-17T17:52:08.389Z,18.70
2022-12-17T17:54:24.479Z,23.95
2022-12-17T17:56:51.150Z,23.42
2022-12-17T17:59:19.305Z,24.02
2022-12-17T18:01:50.737Z,22.17
2022-12-17T18:04:20.177Z,23.58
2022-12-17T18:07:09.058Z,17.25
2022-12-17T18:09:34.685Z,18.63
2022-12-17T18:12:22.452Z,24.83
2022-12-17T18:15:12.771Z,19.20
2022-12-17T18:17:35.635Z,21.50
2022-12-17T18:20:02.618Z,28.02
2022-12-17T18:22:29.222Z,26.30
2022-12-17T18:24:55.806Z,23.10
2022-12-17T18:27:22.451Z,23.27
2022-12-17T18:29:49.068Z,20.42
2022-12-17T18:32:15.709Z,24.80
2022-12-17T18:34:42.533Z,18.90
2022-12-17T18:37:09.405Z,22.90
2022-12-17T18:39:36.105Z,20.85
2022-12-17T18:42:21.386Z,21.05
2022-12-17T18:44:48.081Z,19.85
2022-12-17T18:47:14.894Z,21.05
2022-12-17T18:49:41.593Z,19.42
2022-12-17T18:52:13.133Z,23.95
2022-12-17T18:54:43.055Z,23.17
2022-12-17T18:57:09.764Z,26.25
2022-12-17T18:59:37.333Z,22.63
2022-12-17T19:02:04.283Z,23.58
2022-12-17T19:04:32.786Z,23.75
2022-12-17T19:06:59.611Z,24.83
2022-12-17T19:09:29.088Z,22.40
2022-12-17T19:11:56.567Z,23.48
2022-12-17T19:14:24.080Z,23.67
2022-12-17T19:16:52.422Z,26.60
2022-12-17T19:19:19.968Z,29.30
2022-12-17T19:21:47.244Z,23.08
2022-12-17T19:24:15.703Z,23.35
2022-12-17T19:26:43.170Z,25.50
2022-12-17T19:29:12.279Z,27.38
2022-12-17T19:31:39.504Z,26.15
2022-12-17T19:34:07.686Z,24.02
2022-12-17T19:36:36.125Z,24.58
2022-12-17T19:39:05.887Z,27.15
2022-12-17T19:41:33.010Z,22.77
2022-12-17T19:44:02.237Z,21.75
2022-12-17T19:46:30.765Z,23.20
2022-12-17T19:48:57.920Z,23.17
2022-12-17T19:51:27.890Z,22.42
2022-12-17T19:53:55.673Z,27.40
2022-12-17T19:56:24.829Z,24.92
2022-12-17T19:58:57.473Z,21.55
2022-12-17T20:01:29.850Z,28.57
2022-12-17T20:03:57.187Z,28.37
2022-12-17T20:06:27.171Z,28.02
2022-12-17T20:08:53.837Z,23.40
2022-12-17T20:11:33.729Z,23.67
2022-12-17T20:14:20.822Z,27.38
2022-12-17T20:16:53.023Z,26.83
2022-12-17T20:19:22.095Z,26.80
2022-12-17T20:21:49.013Z,28.90
2022-12-17T20:24:16.620Z,36.08
2022-12-17T20:26:44.325Z,27.73
2022-12-17T20:29:11.923Z,28.20
2022-12-17T20:31:38.744Z,34.10
2022-12-17T20:34:08.162Z,36.08
2022-12-17T20:36:35.597Z,34.67
2022-12-17T20:39:02.981Z,31.35
2022-12-17T20:41:31.091Z,32.50
2022-12-17T20:43:58.197Z,29.95
2022-12-17T20:46:25.980Z,30.40
2022-12-17T20:48:52.954Z,30.23
2022-12-17T20:51:23.346Z,31.15
2022-12-17T20:53:50.854Z,29.15
2022-12-17T20:56:19.995Z,30.45
2022-12-17T20:58:47.100Z,33.33
2022-12-17T21:01:19.172Z,27.10
2022-12-17T21:03:47.478Z,24.85
2022-12-17T21:06:26.462Z,31.15
2022-12-17T21:08:53.920Z,33.97
2022-12-17T21:11:26.080Z,30.80
2022-12-17T21:13:53.408Z,30.52
2022-12-17T21:16:30.710Z,29.52
2022-12-17T21:19:01.676Z,28.70
2022-12-17T21:21:30.820Z,31.40
2022-12-17T21:23:58.299Z,29.52
2022-12-17T21:26:33.767Z,31.17
2022-12-17T21:29:01.791Z,35.40
2022-12-17T21:31:31.996Z,34.40
2022-12-17T21:34:01.317Z,36.90
2022-12-17T21:36:30.552Z,34.38
2022-12-17T21:38:58.510Z,35.92
2022-12-17T21:41:28.683Z,35.60
2022-12-17T21:44:01.331Z,36.75
2022-12-17T21:46:29.421Z,34.97
2022-12-17T21:48:58.409Z,37.17
2022-12-17T21:51:25.466Z,32.30
2022-12-17T21:53:58.521Z,30.65
2022-12-17T21:56:25.510Z,29.85
2022-12-17T21:58:57.628Z,33.65
2022-12-17T22:01:26.782Z,36.25
2022-12-17T22:03:55.332Z,35.00
2022-12-17T22:06:30.022Z,31.15
2022-12-17T22:09:07.597Z,32.38
2022-12-17T22:11:41.408Z,32.55
2022-12-17T22:14:16.965Z,33.80
2022-12-17T22:16:47.240Z,33.00
2022-12-17T22:19:16.601Z,28.77
2022-12-17T22:21:45.229Z,32.70
2022-12-17T22:24:16.879Z,29.60
2022-12-17T22:26:44.194Z,29.92
2022-12-17T22:29:10.930Z,28.23
2022-12-17T22:31:56.196Z,32.05
2022-12-17T22:35:55.624Z,31.75
2022-12-17T22:40:59.056Z,25.83
2022-12-17T22:43:11.543Z,30.55
2022-12-17T22:44:43.673Z,32.08
2022-12-17T22:45:49.206Z,29.77
2022-12-17T22:48:15.950Z,28.83
2022-12-17T22:50:45.596Z,29.10
2022-12-17T22:53:24.530Z,29.85
2022-12-17T22:55:52.270Z,25.40
2022-12-17T22:58:20.045Z,31.50
2022-12-17T23:00:46.713Z,35.67
2022-12-17T23:03:13.493Z,33.67
2022-12-17T23:05:40.263Z,36.33
2022-12-17T23:08:07.033Z,35.35
2022-12-17T23:10:33.663Z,37.40
2022-12-17T23:13:00.493Z,37.50
2022-12-17T23:15:30.309Z,36.35
2022-12-17T23:17:59.336Z,37.40
2022-12-17T23:20:28.701Z,34.75
2022-12-17T23:22:55.832Z,41.00
2022-12-17T23:25:23.203Z,33.63
2022-12-17T23:27:50.590Z,36.33
2022-12-17T23:30:18.193Z,39.00
2022-12-17T23:32:45.123Z,38.60
2022-12-17T23:35:12.922Z,35.85
2022-12-17T23:37:40.624Z,37.97
2022-12-17T23:40:09.638Z,34.72
2022-12-17T23:42:36.255Z,42.60
2022-12-17T23:45:03.567Z,38.80
2022-12-17T23:47:31.562Z,39.17
2022-12-17T23:49:58.192Z,36.50
2022-12-17T23:52:24.817Z,38.05
2022-12-17T23:54:51.411Z,38.55
2022-12-17T23:57:18.003Z,35.05
2022-12-17T23:59:44.605Z,33.20
